Main page
METAR-TAF:

METAR-TAF

Airports :

Searcy Municipal Airport

Searcy, Arkansas, United States

latitude: 35-12-43N, longitude: 091-44-14W, elevation: 266 ft

Current weather observation

The report was made 23 minutes ago, at 18:23 UTC
Wind 17 mph from the South
Temperature 66°F
Humidity 83%
Pressure 29.96 in. Hg
Visibility: 10 miles
Scattered clouds at a height of 800 ft
Overcast at a height of 1400 ft

METAR: KSRC 031823Z AUTO 18015KT 10SM SCT008 OVC014 19/16 A2996 RMK AO2

Time: 12:46 (18:46 UTC)


TAF: missing

Weather observations and forecasts of more than 4000 airports (METAR and TAF reports).

The available stations are represented by yellow and red dots on the map.

Hover mouse over dot to see the name of the station.

Then click to see weather observations and forecasts.

To change the map : click on the green buttons with a black cross to zoom in, on the green button with a dash to zoom out, or on the green arrows for adjacent maps.


METAR-TAF: